Time;durP1;ratioP1;P1;durP2;ratioP2;P2;SDS_P1;SDS_P2;PMS_P1;PMS_P2;Temp;Humidity;BMP_temperature;BMP_pressure;BME280_temperature;BME280_humidity;BME280_pressure;Samples;Min_cycle;Max_cycle;Signal;HPM_P1;HPM_P2
2021/11/25 00:01:41;;;;;;;19.35;10.45;;;;;;;3.76;70.34;101052.50;5049888;28;20131;-21
2021/11/25 00:04:06;;;;;;;24.25;13.15;;;;;;;3.70;70.90;101058.38;5049585;28;20473;-21
2021/11/25 00:06:31;;;;;;;27.65;14.88;;;;;;;4.24;69.01;101061.88;5049474;28;20025;-20
2021/11/25 00:08:57;;;;;;;26.70;11.90;;;;;;;4.26;69.10;101064.34;5049443;28;20048;-21
2021/11/25 00:11:24;;;;;;;25.70;11.07;;;;;;;4.07;69.80;101058.25;5049371;28;20047;-21
2021/11/25 00:13:49;;;;;;;36.65;13.80;;;;;;;3.72;69.50;101048.50;5049110;28;20037;-21
2021/11/25 00:16:15;;;;;;;31.23;13.45;;;;;;;3.54;70.95;101059.91;5048942;28;20436;-21
2021/11/25 00:18:40;;;;;;;48.30;17.10;;;;;;;3.29;71.87;101064.06;5048969;28;20029;-21
2021/11/25 00:21:06;;;;;;;40.28;13.90;;;;;;;3.05;72.70;101061.97;5049237;28;20425;-21
2021/11/25 00:23:31;;;;;;;29.23;13.10;;;;;;;3.39;72.48;101061.34;5049522;28;20025;-21
2021/11/25 00:25:57;;;;;;;140.35;53.90;;;;;;;4.08;69.92;101059.09;5049097;28;20044;-21
2021/11/25 00:28:22;;;;;;;99.05;47.42;;;;;;;4.35;68.38;101061.63;5031094;28;20029;-22
2021/11/25 00:30:47;;;;;;;102.30;46.83;;;;;;;4.28;69.16;101068.50;5049080;28;20477;-21
2021/11/25 00:33:13;;;;;;;98.55;40.78;;;;;;;4.27;68.63;101077.41;5048559;28;20021;-20
2021/11/25 00:35:38;;;;;;;36.60;17.45;;;;;;;3.93;68.34;101050.88;5048779;28;20036;-21
2021/11/25 00:38:05;;;;;;;42.58;19.65;;;;;;;4.34;68.46;101067.06;5031013;28;20025;-21
2021/11/25 00:40:31;;;;;;;49.53;22.15;;;;;;;4.54;68.12;101057.13;5051049;28;20036;-21
2021/11/25 00:42:57;;;;;;;58.17;26.98;;;;;;;4.55;68.63;101061.44;5057413;28;20028;-22
2021/11/25 00:45:22;;;;;;;98.70;53.08;;;;;;;4.25;69.54;101052.97;5057723;28;20456;-21
2021/11/25 00:47:47;;;;;;;94.50;46.78;;;;;;;3.92;71.45;101052.66;5059010;28;20424;-22
2021/11/25 00:50:14;;;;;;;54.40;26.08;;;;;;;3.49;73.43;101056.84;5056896;28;20028;-21
2021/11/25 00:52:40;;;;;;;36.38;19.13;;;;;;;3.62;73.24;101057.34;5058056;28;20033;-21
2021/11/25 00:55:06;;;;;;;30.40;15.80;;;;;;;3.47;72.93;101048.25;5058479;28;20060;-21
2021/11/25 00:57:31;;;;;;;28.92;14.70;;;;;;;3.16;73.58;101040.66;5056150;28;20385;-21
2021/11/25 00:59:57;;;;;;;30.08;14.18;;;;;;;3.11;74.56;101037.66;5058025;28;20098;-22
2021/11/25 01:02:22;;;;;;;28.08;14.98;;;;;;;3.12;74.56;101044.56;5057093;28;20024;-21
2021/11/25 01:04:48;;;;;;;29.92;14.75;;;;;;;3.03;74.60;101034.09;5053384;28;20036;-21
2021/11/25 01:07:13;;;;;;;26.23;14.88;;;;;;;3.22;75.08;101061.16;5048214;28;20378;-21
2021/11/25 01:09:39;;;;;;;25.65;13.75;;;;;;;3.18;75.66;101041.34;5048417;28;20078;-21
2021/11/25 01:12:05;;;;;;;28.95;14.18;;;;;;;3.23;75.61;101046.19;5048508;28;20035;-21
2021/11/25 01:14:31;;;;;;;30.20;15.38;;;;;;;3.23;76.11;101043.56;5030209;28;20045;-21
2021/11/25 01:16:57;;;;;;;30.23;16.50;;;;;;;3.18;75.66;101022.91;5048133;28;20032;-21
2021/11/25 01:19:22;;;;;;;27.42;16.02;;;;;;;3.29;75.86;101032.44;5030542;28;20032;-21
2021/11/25 01:21:48;;;;;;;38.45;19.77;;;;;;;3.78;74.22;101037.38;5048277;28;20033;-22
2021/11/25 01:24:13;;;;;;;35.80;19.15;;;;;;;3.85;73.48;101019.97;5047860;28;20021;-21
2021/11/25 01:26:38;;;;;;;28.63;15.77;;;;;;;4.03;73.34;101039.25;5048030;28;20036;-21
2021/11/25 01:29:04;;;;;;;26.30;14.00;;;;;;;4.04;72.62;101034.78;5048096;28;20493;-21
2021/11/25 01:31:29;;;;;;;17.48;9.80;;;;;;;3.40;75.23;101018.22;5048204;28;20815;-21
2021/11/25 01:33:55;;;;;;;18.85;10.55;;;;;;;3.29;76.13;101034.22;5047883;28;20037;-21
2021/11/25 01:36:20;;;;;;;16.58;10.15;;;;;;;3.20;76.08;101028.84;5053026;28;20064;-21
2021/11/25 01:38:46;;;;;;;22.83;15.85;;;;;;;3.15;76.10;101006.56;5054949;28;20033;-21
2021/11/25 01:41:11;;;;;;;17.83;10.32;;;;;;;3.24;76.11;101021.47;5054632;28;20049;-21
2021/11/25 01:43:38;;;;;;;17.83;10.80;;;;;;;3.96;74.24;101032.94;5054650;28;20036;-21
2021/11/25 01:46:15;;;;;;;17.75;10.43;;;;;;;4.12;73.06;101026.94;5054512;28;20029;-21
2021/11/25 01:48:41;;;;;;;19.58;10.68;;;;;;;3.95;72.47;101030.44;5036864;28;20056;-21
2021/11/25 01:51:06;;;;;;;18.00;10.00;;;;;;;3.90;72.05;101033.50;5054812;28;20767;-21
2021/11/25 01:53:32;;;;;;;17.27;10.07;;;;;;;3.50;74.23;101029.53;5054377;28;20025;-22
2021/11/25 01:55:58;;;;;;;27.60;11.52;;;;;;;3.25;74.52;101012.63;5054456;28;20064;-21
2021/11/25 01:58:24;;;;;;;17.75;10.18;;;;;;;3.08;75.83;101016.03;5054325;28;20025;-21
2021/11/25 02:00:52;;;;;;;16.55;9.40;;;;;;;2.97;76.56;101027.59;5054685;28;20040;-21
2021/11/25 02:03:17;;;;;;;16.88;10.25;;;;;;;2.78;76.61;101031.97;5036905;28;20032;-21
2021/11/25 02:05:43;;;;;;;17.70;9.75;;;;;;;2.91;75.88;101020.28;5036737;28;20811;-21
2021/11/25 02:08:09;;;;;;;16.58;10.18;;;;;;;3.39;73.86;101027.09;5054387;28;20029;-21
2021/11/25 02:10:35;;;;;;;19.48;10.68;;;;;;;3.29;73.52;101007.84;5054206;28;20043;-21
2021/11/25 02:13:01;;;;;;;21.55;10.63;;;;;;;3.60;73.72;101022.38;5036398;28;20051;-21
2021/11/25 02:15:26;;;;;;;19.20;11.48;;;;;;;3.41;73.60;101018.06;5054110;28;20497;-21
2021/11/25 02:17:52;;;;;;;30.25;18.70;;;;;;;3.10;75.06;101019.34;5054386;28;20094;-21
2021/11/25 02:20:17;;;;;;;24.83;15.40;;;;;;;3.01;74.90;101006.06;5054202;28;20040;-21
2021/11/25 02:22:43;;;;;;;19.25;11.75;;;;;;;3.44;74.28;101006.38;5054618;28;20037;-21
2021/11/25 02:25:10;;;;;;;30.58;15.43;;;;;;;4.02;72.22;101021.78;5036663;28;20025;-21
2021/11/25 02:27:37;;;;;;;35.65;15.55;;;;;;;3.85;72.45;101006.78;5036585;28;20068;-20
2021/11/25 02:30:04;;;;;;;20.17;11.23;;;;;;;4.09;71.10;100992.94;5036535;28;20556;-21
2021/11/25 02:32:30;;;;;;;21.52;11.45;;;;;;;4.20;71.13;101013.81;5054186;28;20067;-21
2021/11/25 02:34:55;;;;;;;21.58;12.45;;;;;;;4.12;71.71;101016.38;5054014;28;20025;-21
2021/11/25 02:37:21;;;;;;;47.15;24.33;;;;;;;4.27;71.41;100992.91;5054156;28;20044;-21
2021/11/25 02:39:47;;;;;;;41.60;22.23;;;;;;;4.08;71.80;101016.84;5054231;28;20032;-22
2021/11/25 02:42:12;;;;;;;22.27;12.25;;;;;;;3.56;74.34;100993.81;5036060;28;20469;-21
2021/11/25 02:44:38;;;;;;;53.53;28.00;;;;;;;3.46;74.76;100996.50;5053991;28;20067;-20
2021/11/25 02:47:03;;;;;;;21.75;12.05;;;;;;;3.37;75.88;100994.75;5051388;28;20048;-21
2021/11/25 02:49:28;;;;;;;22.10;11.88;;;;;;;3.48;75.33;100996.38;5051232;28;20044;-21
2021/11/25 02:51:54;;;;;;;21.75;11.82;;;;;;;3.55;74.86;100986.88;5050963;28;20032;-21
2021/11/25 02:54:19;;;;;;;43.35;21.75;;;;;;;4.00;73.07;100985.94;5050358;28;20029;-21
2021/11/25 02:56:45;;;;;;;31.35;16.65;;;;;;;4.51;71.20;100999.31;5050888;28;20458;-21
2021/11/25 02:59:10;;;;;;;26.10;15.20;;;;;;;4.66;70.53;101000.41;5050718;28;20029;-20
2021/11/25 03:01:36;;;;;;;30.70;15.98;;;;;;;4.25;71.30;100986.97;5050650;28;20040;-21
2021/11/25 03:04:02;;;;;;;25.15;14.73;;;;;;;4.54;70.14;100999.84;5032766;28;20040;-21
2021/11/25 03:06:28;;;;;;;35.40;18.60;;;;;;;3.94;72.37;100997.97;5050363;28;20033;-20
2021/11/25 03:08:54;;;;;;;26.60;14.98;;;;;;;4.23;70.66;100996.84;5032626;28;20025;-21
2021/11/25 03:11:21;;;;;;;25.55;14.38;;;;;;;4.19;70.69;100984.94;5050441;28;20507;-21
2021/11/25 03:13:52;;;;;;;31.52;16.02;;;;;;;3.73;73.41;100986.88;5050369;28;20068;-21
2021/11/25 03:16:18;;;;;;;27.35;14.27;;;;;;;3.36;74.89;100977.28;5050419;28;20147;-21
2021/11/25 03:18:43;;;;;;;19.98;11.10;;;;;;;3.13;75.07;100983.00;5050476;28;20047;-21
2021/11/25 03:21:09;;;;;;;15.95;10.15;;;;;;;2.89;75.77;100980.91;5050406;28;20044;-21
2021/11/25 03:23:37;;;;;;;17.13;10.52;;;;;;;2.89;76.48;100985.34;5050208;28;20490;-20
2021/11/25 03:26:03;;;;;;;20.10;12.40;;;;;;;3.04;76.16;100975.13;5050382;28;20060;-22
2021/11/25 03:28:28;;;;;;;61.25;34.47;;;;;;;3.50;74.56;100978.59;5050042;28;20064;-21
2021/11/25 03:30:55;;;;;;;35.35;18.52;;;;;;;4.02;73.10;100984.81;5050261;28;20072;-20
2021/11/25 03:33:25;;;;;;;32.35;16.70;;;;;;;4.30;71.67;100976.75;5050220;28;20059;-21
2021/11/25 03:35:50;;;;;;;48.92;19.33;;;;;;;3.68;74.00;100982.06;5049991;28;20029;-21
2021/11/25 03:38:16;;;;;;;34.75;18.52;;;;;;;3.16;75.84;100953.69;5050242;28;20385;-21
2021/11/25 03:40:42;;;;;;;25.73;15.52;;;;;;;3.14;76.51;100954.81;5049864;28;20032;-21
2021/11/25 03:43:07;;;;;;;28.60;17.20;;;;;;;3.11;77.05;100963.84;5050053;28;20378;-20
2021/11/25 03:45:33;;;;;;;22.65;13.48;;;;;;;2.98;77.61;100960.72;5049812;28;20546;-21
2021/11/25 03:47:58;;;;;;;24.05;16.02;;;;;;;3.19;76.42;100961.31;5015593;28;20056;-22
2021/11/25 03:50:24;;;;;;;29.38;15.15;;;;;;;3.94;73.70;100960.16;5049916;28;20029;-22
2021/11/25 03:52:49;;;;;;;47.70;18.70;;;;;;;4.03;73.30;100962.72;5050324;28;20040;-21
2021/11/25 03:55:15;;;;;;;37.95;17.63;;;;;;;3.82;74.75;100956.94;5049730;28;20040;-21
2021/11/25 03:57:42;;;;;;;32.22;16.33;;;;;;;3.85;73.25;100950.53;5049580;28;20033;-21
2021/11/25 04:00:09;;;;;;;29.92;16.15;;;;;;;3.47;74.99;100958.59;5049389;28;20037;-21
2021/11/25 04:02:35;;;;;;;25.98;13.68;;;;;;;3.75;74.89;100966.44;5049476;28;20133;-21
2021/11/25 04:05:00;;;;;;;23.38;13.75;;;;;;;3.93;74.09;100959.34;5049368;28;20032;-22
2021/11/25 04:07:26;;;;;;;29.20;14.70;;;;;;;4.14;73.21;100960.81;5049520;28;20390;-21
2021/11/25 04:09:51;;;;;;;27.23;14.07;;;;;;;3.58;74.65;100952.28;5049527;28;20041;-21
2021/11/25 04:12:17;;;;;;;27.33;13.55;;;;;;;3.42;75.69;100950.31;5049006;28;20025;-21
2021/11/25 04:14:43;;;;;;;25.17;13.60;;;;;;;3.69;73.69;100949.41;5049140;28;20099;-21
2021/11/25 04:17:08;;;;;;;23.77;13.80;;;;;;;4.38;71.61;100955.66;5049386;28;20469;-21
2021/11/25 04:19:33;;;;;;;21.98;12.85;;;;;;;4.52;70.24;100948.97;5049193;28;20498;-21
2021/11/25 04:21:59;;;;;;;62.40;32.30;;;;;;;3.98;71.87;100959.72;5049043;28;20037;-21
2021/11/25 04:24:25;;;;;;;48.70;23.60;;;;;;;3.93;73.13;100951.41;5048914;28;20025;-21
2021/11/25 04:26:50;;;;;;;33.10;17.45;;;;;;;3.96;72.78;100953.78;5048950;28;20044;-21
2021/11/25 04:29:15;;;;;;;26.70;14.45;;;;;;;3.88;72.02;100958.94;5049146;28;20044;-21
2021/11/25 04:37:10;;;;;;;67.43;33.55;;;;;;;3.76;72.75;100952.25;5048994;28;20520;-21
2021/11/25 04:39:35;;;;;;;63.75;31.88;;;;;;;3.97;71.80;100939.56;5049069;28;20501;-21
2021/11/25 04:42:01;;;;;;;35.45;19.50;;;;;;;3.73;71.88;100936.75;5048802;28;20112;-21
2021/11/25 04:44:26;;;;;;;31.88;18.02;;;;;;;3.73;72.17;100947.31;5048105;28;20974;-21
2021/11/25 04:46:52;;;;;;;29.40;16.85;;;;;;;4.05;70.75;100938.00;5048485;28;20037;-21
2021/11/25 04:49:17;;;;;;;48.33;21.42;;;;;;;3.85;70.79;100940.81;5030795;28;20037;-21
2021/11/25 04:51:43;;;;;;;48.25;22.65;;;;;;;3.29;72.55;100941.94;5047501;28;20416;-21
2021/11/25 04:54:08;;;;;;;61.80;27.38;;;;;;;3.57;72.16;100942.72;5048451;28;20033;-21
2021/11/25 04:56:34;;;;;;;29.65;15.57;;;;;;;3.87;70.21;100943.28;5048334;28;20033;-21
2021/11/25 04:58:59;;;;;;;26.92;14.43;;;;;;;3.66;71.03;100951.50;5048744;28;20052;-21
2021/11/25 05:01:25;;;;;;;62.35;27.63;;;;;;;2.87;73.19;100914.34;5048594;28;20079;-21
2021/11/25 05:03:50;;;;;;;96.05;37.33;;;;;;;2.71;73.13;100922.06;5048486;28;20078;-21
2021/11/25 05:06:16;;;;;;;106.82;43.58;;;;;;;2.63;73.54;100954.38;5030329;28;20047;-21
2021/11/25 05:08:42;;;;;;;81.00;34.08;;;;;;;2.09;75.39;100940.16;5048318;28;20500;-20
2021/11/25 05:11:07;;;;;;;111.28;42.67;;;;;;;1.81;76.60;100933.00;5047598;28;20032;-21
2021/11/25 05:13:33;;;;;;;90.88;36.78;;;;;;;1.84;76.56;100939.81;5048484;28;20118;-21
2021/11/25 05:16:00;;;;;;;40.20;20.13;;;;;;;1.63;77.27;100933.84;5048226;28;20598;-21
2021/11/25 05:18:26;;;;;;;34.60;18.13;;;;;;;1.57;77.56;100940.50;5048182;28;20132;-21
2021/11/25 05:20:52;;;;;;;33.33;18.45;;;;;;;1.56;77.37;100944.09;5048462;28;20500;-21
2021/11/25 05:23:17;;;;;;;38.63;21.00;;;;;;;1.66;77.44;100926.53;5048231;28;20037;-20
2021/11/25 05:25:42;;;;;;;57.40;31.65;;;;;;;2.24;76.17;100938.72;5048226;28;20039;-21
2021/11/25 05:28:08;;;;;;;136.30;54.78;;;;;;;2.88;73.90;100936.25;5048069;28;20041;-21
2021/11/25 05:30:34;;;;;;;120.85;49.35;;;;;;;2.93;74.02;100934.84;5048142;28;20044;-21
2021/11/25 05:33:00;;;;;;;153.70;55.17;;;;;;;2.81;73.13;100915.75;5047960;28;20040;-21
2021/11/25 05:35:25;;;;;;;195.43;56.72;;;;;;;2.91;73.43;100941.22;5047957;28;20060;-21
2021/11/25 05:37:51;;;;;;;238.75;65.68;;;;;;;2.87;73.65;100940.69;5048019;28;20029;-22
2021/11/25 05:40:16;;;;;;;161.75;47.33;;;;;;;2.87;73.93;100939.88;5048101;28;20060;-21
2021/11/25 05:42:42;;;;;;;125.00;40.55;;;;;;;2.55;74.98;100941.13;5048041;28;20021;-20
2021/11/25 05:45:08;;;;;;;139.57;47.70;;;;;;;2.65;74.47;100920.00;5047974;28;20083;-21
2021/11/25 05:47:35;;;;;;;77.47;36.28;;;;;;;2.61;74.40;100919.47;5048106;28;20033;-21
2021/11/25 05:50:04;;;;;;;48.80;26.33;;;;;;;3.06;73.18;100929.19;5030082;28;20032;-21
2021/11/25 05:52:29;;;;;;;51.17;26.15;;;;;;;2.69;73.29;100911.66;5047884;28;20029;-21
2021/11/25 05:54:55;;;;;;;49.13;26.83;;;;;;;2.84;73.85;100932.25;5048105;28;20033;-21
2021/11/25 05:57:20;;;;;;;53.78;30.38;;;;;;;2.68;74.11;100920.56;5047833;28;20029;-21
2021/11/25 05:59:46;;;;;;;56.20;28.63;;;;;;;2.79;73.69;100925.63;5047886;28;20037;-21
2021/11/25 06:02:11;;;;;;;52.05;26.65;;;;;;;2.88;73.87;100936.25;5047549;28;20083;-21
2021/11/25 06:04:37;;;;;;;53.75;31.25;;;;;;;2.99;73.59;100928.16;5047661;28;20538;-20
2021/11/25 06:07:02;;;;;;;53.53;28.35;;;;;;;3.80;70.72;100948.34;5030254;28;20057;-21
2021/11/25 06:09:28;;;;;;;44.85;26.20;;;;;;;3.95;70.27;100952.09;5047862;28;20064;-21
2021/11/25 06:11:53;;;;;;;47.40;26.05;;;;;;;3.82;71.26;100947.22;5047891;28;20413;-21
2021/11/25 06:14:19;;;;;;;40.80;24.23;;;;;;;3.05;73.13;100932.81;5047113;28;20056;-21
2021/11/25 06:16:44;;;;;;;46.78;25.75;;;;;;;2.79;74.75;100954.59;5047735;28;20111;-21
2021/11/25 06:19:10;;;;;;;40.13;20.20;;;;;;;2.53;76.39;100961.50;5047566;28;20033;-21
2021/11/25 06:21:36;;;;;;;36.33;20.05;;;;;;;2.44;77.80;100965.00;5049023;28;20029;-22
2021/11/25 06:24:01;;;;;;;36.53;23.02;;;;;;;2.37;76.52;100928.72;5051719;28;20132;-21
2021/11/25 06:26:27;;;;;;;42.20;23.85;;;;;;;2.85;75.47;100952.34;5051216;28;20029;-21
2021/11/25 06:28:54;;;;;;;32.88;21.15;;;;;;;3.32;74.04;100960.13;5051353;28;20140;-21
2021/11/25 06:31:21;;;;;;;41.83;26.75;;;;;;;3.64;73.07;100959.59;5051168;28;20154;-21
2021/11/25 06:33:47;;;;;;;50.22;30.50;;;;;;;3.56;72.67;100965.63;5051104;28;20090;-21
2021/11/25 06:36:12;;;;;;;47.35;30.25;;;;;;;3.62;72.27;100943.91;5051191;28;20469;-21
2021/11/25 06:38:38;;;;;;;51.35;30.02;;;;;;;3.79;72.25;100949.31;5051186;28;20033;-21
2021/11/25 06:41:07;;;;;;;52.58;31.38;;;;;;;3.99;72.14;100955.25;5051264;28;20033;-21
2021/11/25 06:43:32;;;;;;;47.47;29.95;;;;;;;3.85;71.98;100930.25;5050806;28;20390;-21
2021/11/25 06:45:58;;;;;;;41.78;27.23;;;;;;;4.26;70.90;100949.00;5051243;28;20025;-21
2021/11/25 06:48:23;;;;;;;48.92;29.67;;;;;;;4.60;69.34;100946.38;5050759;28;20739;-20
2021/11/25 06:50:49;;;;;;;41.30;24.88;;;;;;;4.39;70.82;100948.56;5051134;28;20037;-21
2021/11/25 06:53:14;;;;;;;36.05;22.50;;;;;;;4.39;70.51;100938.00;5032932;28;20029;-21
2021/11/25 06:55:39;;;;;;;37.20;24.77;;;;;;;4.07;71.41;100941.31;5051014;28;20460;-21
2021/11/25 06:58:05;;;;;;;33.92;23.02;;;;;;;4.36;71.28;100960.28;5050892;28;20036;-21
2021/11/25 07:00:30;;;;;;;34.78;21.42;;;;;;;4.29;71.19;100953.13;5032589;28;20095;-21
2021/11/25 07:02:56;;;;;;;37.38;21.67;;;;;;;3.95;71.84;100952.09;5050566;28;20393;-21
2021/11/25 07:05:25;;;;;;;30.20;19.17;;;;;;;3.63;73.92;100942.09;5050434;28;20133;-21
2021/11/25 07:07:51;;;;;;;32.80;18.92;;;;;;;4.41;72.72;100957.16;5050739;28;20116;-21
2021/11/25 07:10:16;;;;;;;25.85;15.63;;;;;;;4.68;72.00;100953.53;5050664;28;20051;-21
2021/11/25 07:12:42;;;;;;;20.48;12.13;;;;;;;5.06;69.86;100950.50;5050345;28;20044;-21
2021/11/25 07:15:08;;;;;;;25.02;14.43;;;;;;;5.08;68.27;100924.75;5050506;28;20083;-20
2021/11/25 07:17:34;;;;;;;23.33;14.27;;;;;;;5.49;68.00;100952.06;5050759;28;20402;-21
2021/11/25 07:20:01;;;;;;;21.30;13.80;;;;;;;5.63;67.64;100932.91;5032312;28;20488;-21
2021/11/25 07:22:27;;;;;;;23.27;14.18;;;;;;;5.22;68.92;100939.97;5050333;28;20029;-21
2021/11/25 07:24:53;;;;;;;22.70;13.90;;;;;;;5.26;69.16;100941.31;5050512;28;20037;-21
2021/11/25 07:27:18;;;;;;;26.30;14.20;;;;;;;5.42;70.19;100938.69;5050233;28;20087;-21
2021/11/25 07:29:44;;;;;;;25.65;14.38;;;;;;;5.38;70.08;100945.28;5050210;28;20040;-21
2021/11/25 07:32:10;;;;;;;33.67;17.45;;;;;;;5.61;69.53;100940.19;5049817;28;20033;-21
2021/11/25 07:34:35;;;;;;;70.45;23.02;;;;;;;5.93;67.72;100945.66;5049342;28;20774;-21
2021/11/25 07:37:02;;;;;;;24.85;14.85;;;;;;;6.07;66.03;100955.59;5050450;28;20028;-21
2021/11/25 07:39:27;;;;;;;22.42;13.50;;;;;;;6.27;65.48;100945.44;5050060;28;20128;-21
2021/11/25 07:41:53;;;;;;;30.02;14.95;;;;;;;6.52;64.53;100950.69;5049843;28;20040;-21
2021/11/25 07:44:18;;;;;;;25.13;14.07;;;;;;;6.43;64.49;100953.34;5050013;28;20040;-20
2021/11/25 07:46:44;;;;;;;32.22;18.10;;;;;;;6.71;64.38;100952.94;5049751;28;20028;-20
2021/11/25 07:49:10;;;;;;;37.30;20.67;;;;;;;6.94;63.24;100949.53;5049967;28;20064;-21
2021/11/25 07:51:37;;;;;;;47.03;29.17;;;;;;;6.75;63.39;100927.75;5049806;28;20029;-21
2021/11/25 07:54:07;;;;;;;40.47;23.98;;;;;;;6.74;63.67;100949.13;5049807;28;20075;-20
2021/11/25 07:56:33;;;;;;;38.42;23.85;;;;;;;7.10;62.68;100940.69;5049775;28;20033;-21
2021/11/25 07:58:58;;;;;;;39.20;23.63;;;;;;;7.14;63.18;100949.94;5049629;28;20079;-21
2021/11/25 08:01:24;;;;;;;28.60;17.73;;;;;;;7.07;61.73;100931.25;5049493;28;20041;-21
2021/11/25 08:03:49;;;;;;;36.78;18.65;;;;;;;7.28;62.75;100943.06;5031579;28;20037;-21
2021/11/25 08:06:14;;;;;;;49.53;23.70;;;;;;;6.62;65.18;100938.91;5049420;28;20025;-21
2021/11/25 08:08:42;;;;;;;41.50;19.90;;;;;;;6.39;65.80;100965.28;5049817;28;20687;-21
2021/11/25 08:11:08;;;;;;;16.17;9.98;;;;;;;6.27;66.39;100960.53;5049662;28;20029;-21
2021/11/25 08:13:33;;;;;;;15.30;9.70;;;;;;;5.82;70.01;100947.66;5049683;28;20044;-20
2021/11/25 08:15:59;;;;;;;16.63;10.20;;;;;;;6.19;67.44;100945.47;5049425;28;20088;-21
2021/11/25 08:18:24;;;;;;;13.75;8.98;;;;;;;5.91;69.84;100937.06;5049267;28;20029;-21
2021/11/25 08:20:50;;;;;;;17.65;11.15;;;;;;;6.31;68.33;100951.25;5049304;28;20053;-21
2021/11/25 08:23:15;;;;;;;17.35;10.35;;;;;;;6.93;65.96;100945.25;5049220;28;20079;-21
2021/11/25 08:25:41;;;;;;;17.25;9.98;;;;;;;7.17;64.23;100923.03;5048967;28;20044;-21
2021/11/25 08:28:07;;;;;;;17.75;11.05;;;;;;;7.62;63.91;100939.97;5049718;28;20086;-21
2021/11/25 08:30:32;;;;;;;16.95;10.00;;;;;;;7.23;65.12;100925.84;5031163;28;20041;-21
2021/11/25 08:32:58;;;;;;;18.48;10.82;;;;;;;7.37;63.86;100931.38;5049038;28;20036;-21
2021/11/25 08:35:24;;;;;;;16.27;10.15;;;;;;;7.29;65.33;100924.28;5049227;28;20401;-21
2021/11/25 08:37:50;;;;;;;16.00;9.60;;;;;;;7.03;66.11;100927.28;5048904;28;20033;-22
2021/11/25 08:40:15;;;;;;;17.05;10.02;;;;;;;7.40;65.04;100915.94;5048875;28;20031;-21
2021/11/25 08:42:41;;;;;;;17.73;10.32;;;;;;;8.00;62.86;100927.53;5048859;28;20476;-21
2021/11/25 08:45:07;;;;;;;17.67;10.43;;;;;;;7.89;64.77;100917.38;5047891;28;20040;-21
2021/11/25 08:47:33;;;;;;;19.52;10.43;;;;;;;7.51;65.05;100898.75;5048745;28;20467;-21
2021/11/25 08:49:58;;;;;;;21.45;10.63;;;;;;;7.37;65.41;100910.16;5048884;28;20477;-22
2021/11/25 08:52:23;;;;;;;19.58;10.18;;;;;;;7.41;65.13;100890.22;5048505;28;20100;-21
2021/11/25 08:54:49;;;;;;;25.65;11.52;;;;;;;7.76;63.87;100898.56;5031013;28;20512;-21
2021/11/25 08:57:14;;;;;;;23.23;11.65;;;;;;;7.91;63.18;100896.75;5048724;28;20095;-21
2021/11/25 08:59:40;;;;;;;21.08;10.65;;;;;;;8.54;61.93;100893.75;5048350;28;20033;-21
2021/11/25 09:02:05;;;;;;;29.13;15.40;;;;;;;8.34;63.85;100891.66;5048567;28;20029;-21
2021/11/25 09:04:31;;;;;;;13.13;7.13;;;;;;;8.38;62.36;100878.84;5048364;28;20033;-21
2021/11/25 09:06:57;;;;;;;18.05;9.48;;;;;;;8.04;63.25;100881.00;5048771;28;20040;-21
2021/11/25 09:09:22;;;;;;;19.95;10.18;;;;;;;8.27;63.01;100874.78;5030484;28;20041;-21
2021/11/25 09:11:48;;;;;;;51.15;23.25;;;;;;;8.38;60.40;100861.03;5030428;28;20060;-21
2021/11/25 09:14:13;;;;;;;38.58;19.88;;;;;;;8.43;61.88;100871.97;5048165;28;20033;-22
2021/11/25 09:16:39;;;;;;;20.27;11.18;;;;;;;8.30;62.13;100855.81;5048645;28;20033;-21
2021/11/25 09:19:05;;;;;;;19.92;10.52;;;;;;;8.13;60.36;100841.91;5048371;28;20033;-21
2021/11/25 09:21:31;;;;;;;11.48;6.35;;;;;;;8.38;60.78;100850.41;5030540;28;20131;-21
2021/11/25 09:24:00;;;;;;;13.18;7.10;;;;;;;8.53;60.40;100846.94;5048372;28;20481;-21
2021/11/25 09:26:26;;;;;;;19.40;9.77;;;;;;;9.49;59.23;100831.53;5048057;28;20029;-21
2021/11/25 09:28:57;;;;;;;13.80;7.63;;;;;;;9.59;57.92;100837.34;5047829;28;20767;-21
2021/11/25 09:31:23;;;;;;;16.73;9.90;;;;;;;9.12;59.98;100814.00;5048283;28;20021;-21
2021/11/25 09:33:49;;;;;;;20.05;10.63;;;;;;;9.93;58.63;100830.41;5048225;28;20056;-21
2021/11/25 09:36:14;;;;;;;21.27;11.93;;;;;;;9.71;56.90;100813.66;5048071;28;20848;-21
2021/11/25 09:38:40;;;;;;;13.80;8.77;;;;;;;10.51;55.66;100823.94;5048165;28;20508;-21
2021/11/25 09:41:05;;;;;;;24.00;11.63;;;;;;;10.33;54.64;100825.28;5048114;28;20052;-21
2021/11/25 09:43:31;;;;;;;15.32;8.13;;;;;;;9.90;55.81;100824.63;5047935;28;20037;-21
2021/11/25 09:45:56;;;;;;;12.45;6.97;;;;;;;9.73;58.09;100816.94;5048198;28;20090;-21
2021/11/25 09:48:23;;;;;;;13.13;7.68;;;;;;;9.66;58.74;100800.09;5047723;28;20401;-21
2021/11/25 09:50:50;;;;;;;31.57;15.67;;;;;;;10.42;54.33;100804.59;5047879;28;20029;-21
2021/11/25 09:53:18;;;;;;;31.67;16.02;;;;;;;10.58;53.58;100782.09;5048333;28;20512;-21
2021/11/25 09:55:44;;;;;;;19.87;11.00;;;;;;;10.50;52.87;100795.63;5047797;28;20493;-21
2021/11/25 09:58:13;;;;;;;17.42;6.40;;;;;;;10.59;51.86;100783.75;5051635;28;20091;-21
2021/11/25 10:00:46;;;;;;;15.07;7.68;;;;;;;10.70;52.00;100785.81;5052206;28;20497;-21
2021/11/25 10:03:16;;;;;;;15.32;8.85;;;;;;;11.19;51.87;100765.97;5052290;28;20473;-21
2021/11/25 10:05:48;;;;;;;43.05;21.75;;;;;;;11.07;52.94;100778.28;5051708;28;20029;-21
2021/11/25 10:08:34;;;;;;;9.52;5.78;;;;;;;10.83;51.64;100779.72;5051714;28;20120;-21
2021/11/25 10:11:00;;;;;;;12.48;7.18;;;;;;;11.08;49.73;100771.94;5052117;28;20029;-22
2021/11/25 10:13:43;;;;;;;17.88;8.82;;;;;;;11.64;50.57;100771.47;5051892;28;20520;-21
2021/11/25 10:16:12;;;;;;;11.10;6.10;;;;;;;12.17;47.43;100764.34;5035289;28;20542;-22
2021/11/25 10:18:38;;;;;;;17.73;8.05;;;;;;;12.59;48.16;100768.25;5033909;28;20032;-22
2021/11/25 10:21:06;;;;;;;11.68;5.47;;;;;;;12.29;48.09;100764.50;5051761;28;20033;-21
2021/11/25 10:23:31;;;;;;;17.17;6.95;;;;;;;11.75;48.37;100761.16;5051688;28;20052;-22
2021/11/25 10:26:09;;;;;;;13.05;5.88;;;;;;;12.59;45.84;100762.91;5051626;28;20080;-21
2021/11/25 10:28:35;;;;;;;7.65;4.25;;;;;;;12.28;45.56;100742.31;5051571;28;20130;-22
2021/11/25 10:31:20;;;;;;;12.00;5.50;;;;;;;12.80;43.46;100756.38;5051363;28;20473;-22
2021/11/25 10:33:56;;;;;;;13.07;6.30;;;;;;;12.70;46.00;100750.69;5051384;28;20576;-21
2021/11/25 10:41:43;;;;;;;12.63;5.82;;;;;;;13.40;42.35;100741.72;5051228;28;20036;-21
2021/11/25 10:44:16;;;;;;;13.88;7.10;;;;;;;13.38;41.61;100733.94;5050997;28;20112;-21
2021/11/25 10:46:47;;;;;;;8.40;4.28;;;;;;;13.18;42.16;100728.72;5016771;28;20032;-22
2021/11/25 10:49:12;;;;;;;7.63;4.80;;;;;;;13.66;41.02;100722.69;5050927;28;20558;-21
2021/11/25 10:51:39;;;;;;;8.98;4.13;;;;;;;13.79;39.22;100724.41;5050878;28;20033;-22
2021/11/25 10:54:16;;;;;;;6.40;3.42;;;;;;;12.94;39.84;100708.94;5050758;28;20068;-21
2021/11/25 10:56:47;;;;;;;6.22;3.25;;;;;;;14.00;39.60;100704.34;5050857;28;20039;-22
2021/11/25 10:59:14;;;;;;;7.60;4.10;;;;;;;14.27;39.69;100704.00;5051254;28;20069;-21
2021/11/25 11:01:50;;;;;;;7.22;3.90;;;;;;;13.80;40.54;100709.97;5051100;28;20032;-22
2021/11/25 11:04:16;;;;;;;9.15;3.83;;;;;;;14.20;39.50;100697.91;5050731;28;20025;-21
2021/11/25 11:06:42;;;;;;;7.38;3.97;;;;;;;13.98;39.38;100702.97;5050782;28;20086;-21
2021/11/25 11:09:27;;;;;;;7.43;4.28;;;;;;;14.52;37.77;100694.97;5049707;28;20056;-21
2021/11/25 11:12:29;;;;;;;6.82;3.90;;;;;;;14.71;38.24;100679.63;5050366;28;20029;-22
2021/11/25 11:14:56;;;;;;;8.57;3.70;;;;;;;15.70;34.96;100679.72;5035584;28;20122;-22
2021/11/25 11:17:46;;;;;;;33.92;15.05;;;;;;;15.73;35.64;100673.06;5050296;28;20071;-21
2021/11/25 11:20:12;;;;;;;30.85;14.98;;;;;;;15.32;36.98;100682.94;5050340;28;20032;-22
2021/11/25 11:22:38;;;;;;;13.18;6.50;;;;;;;15.27;36.64;100681.78;5050395;28;20485;-21
2021/11/25 11:25:05;;;;;;;12.13;5.25;;;;;;;14.90;35.87;100661.59;5050222;28;20043;-22